sensor_id;sensor_type;location;lat;lon;timestamp;P1;durP1;ratioP1;P2;durP2;ratioP2
41705;SDS011;27385;51.096;17.190;2023-01-23T00:00:24;65.30;;;24.50;;
41705;SDS011;27385;51.096;17.190;2023-01-23T00:03:15;71.40;;;28.10;;
41705;SDS011;27385;51.096;17.190;2023-01-23T00:05:46;63.40;;;26.90;;
41705;SDS011;27385;51.096;17.190;2023-01-23T00:08:26;71.30;;;29.40;;
41705;SDS011;27385;51.096;17.190;2023-01-23T00:10:57;71.00;;;25.90;;
41705;SDS011;27385;51.096;17.190;2023-01-23T00:13:28;75.80;;;28.70;;
41705;SDS011;27385;51.096;17.190;2023-01-23T00:15:59;69.70;;;25.30;;
41705;SDS011;27385;51.096;17.190;2023-01-23T00:18:33;71.90;;;26.70;;
41705;SDS011;27385;51.096;17.190;2023-01-23T00:21:05;73.30;;;26.00;;
41705;SDS011;27385;51.096;17.190;2023-01-23T00:23:40;67.50;;;25.20;;
41705;SDS011;27385;51.096;17.190;2023-01-23T00:26:12;70.80;;;27.50;;
41705;SDS011;27385;51.096;17.190;2023-01-23T00:28:44;78.00;;;28.30;;
41705;SDS011;27385;51.096;17.190;2023-01-23T00:31:16;78.80;;;30.80;;
41705;SDS011;27385;51.096;17.190;2023-01-23T00:33:51;79.30;;;29.80;;
41705;SDS011;27385;51.096;17.190;2023-01-23T00:36:24;73.80;;;25.50;;
41705;SDS011;27385;51.096;17.190;2023-01-23T00:38:58;79.60;;;28.20;;
41705;SDS011;27385;51.096;17.190;2023-01-23T00:41:30;77.80;;;28.20;;
41705;SDS011;27385;51.096;17.190;2023-01-23T00:44:01;72.10;;;24.90;;
41705;SDS011;27385;51.096;17.190;2023-01-23T00:46:32;75.50;;;28.30;;
41705;SDS011;27385;51.096;17.190;2023-01-23T00:49:04;73.60;;;27.40;;
41705;SDS011;27385;51.096;17.190;2023-01-23T00:51:34;76.20;;;29.00;;
41705;SDS011;27385;51.096;17.190;2023-01-23T00:54:05;82.40;;;27.70;;
41705;SDS011;27385;51.096;17.190;2023-01-23T00:56:37;84.50;;;29.90;;
41705;SDS011;27385;51.096;17.190;2023-01-23T00:59:08;80.80;;;28.20;;
41705;SDS011;27385;51.096;17.190;2023-01-23T01:01:38;77.60;;;28.60;;
41705;SDS011;27385;51.096;17.190;2023-01-23T01:04:10;81.40;;;29.10;;
41705;SDS011;27385;51.096;17.190;2023-01-23T01:06:42;74.40;;;25.50;;
41705;SDS011;27385;51.096;17.190;2023-01-23T01:09:13;73.90;;;26.80;;
41705;SDS011;27385;51.096;17.190;2023-01-23T01:11:44;79.60;;;28.40;;
41705;SDS011;27385;51.096;17.190;2023-01-23T01:14:15;78.90;;;26.20;;
41705;SDS011;27385;51.096;17.190;2023-01-23T01:16:46;74.40;;;24.90;;
41705;SDS011;27385;51.096;17.190;2023-01-23T01:19:17;75.60;;;28.70;;
41705;SDS011;27385;51.096;17.190;2023-01-23T01:21:48;81.60;;;26.70;;
41705;SDS011;27385;51.096;17.190;2023-01-23T01:24:19;77.90;;;28.30;;
41705;SDS011;27385;51.096;17.190;2023-01-23T01:26:49;76.50;;;26.50;;
41705;SDS011;27385;51.096;17.190;2023-01-23T01:29:21;80.00;;;27.20;;
41705;SDS011;27385;51.096;17.190;2023-01-23T01:31:53;85.10;;;28.50;;
41705;SDS011;27385;51.096;17.190;2023-01-23T01:34:24;82.10;;;28.50;;
41705;SDS011;27385;51.096;17.190;2023-01-23T01:36:54;80.00;;;30.30;;
41705;SDS011;27385;51.096;17.190;2023-01-23T01:39:26;75.60;;;25.80;;
41705;SDS011;27385;51.096;17.190;2023-01-23T01:41:56;91.30;;;30.50;;
41705;SDS011;27385;51.096;17.190;2023-01-23T01:44:29;77.70;;;27.50;;
41705;SDS011;27385;51.096;17.190;2023-01-23T01:47:21;83.20;;;29.00;;
41705;SDS011;27385;51.096;17.190;2023-01-23T01:49:53;85.20;;;30.10;;
41705;SDS011;27385;51.096;17.190;2023-01-23T01:52:29;72.50;;;27.20;;
41705;SDS011;27385;51.096;17.190;2023-01-23T01:55:00;96.40;;;31.10;;
41705;SDS011;27385;51.096;17.190;2023-01-23T01:57:33;90.00;;;30.60;;
41705;SDS011;27385;51.096;17.190;2023-01-23T02:00:10;84.40;;;29.40;;
41705;SDS011;27385;51.096;17.190;2023-01-23T02:02:44;79.20;;;30.00;;
41705;SDS011;27385;51.096;17.190;2023-01-23T02:05:20;87.80;;;29.50;;
41705;SDS011;27385;51.096;17.190;2023-01-23T02:07:55;87.30;;;31.20;;
41705;SDS011;27385;51.096;17.190;2023-01-23T02:10:30;94.20;;;32.70;;
41705;SDS011;27385;51.096;17.190;2023-01-23T02:13:18;86.30;;;31.90;;
41705;SDS011;27385;51.096;17.190;2023-01-23T02:15:52;88.00;;;31.00;;
41705;SDS011;27385;51.096;17.190;2023-01-23T02:18:23;86.50;;;31.80;;
41705;SDS011;27385;51.096;17.190;2023-01-23T02:20:55;90.80;;;32.50;;
41705;SDS011;27385;51.096;17.190;2023-01-23T02:23:31;92.30;;;30.80;;
41705;SDS011;27385;51.096;17.190;2023-01-23T02:26:12;102.90;;;32.10;;
41705;SDS011;27385;51.096;17.190;2023-01-23T02:28:45;92.70;;;30.70;;
41705;SDS011;27385;51.096;17.190;2023-01-23T02:31:18;87.40;;;31.00;;
41705;SDS011;27385;51.096;17.190;2023-01-23T02:33:51;89.60;;;31.80;;
41705;SDS011;27385;51.096;17.190;2023-01-23T02:36:23;83.20;;;30.30;;
41705;SDS011;27385;51.096;17.190;2023-01-23T02:39:00;93.20;;;31.90;;
41705;SDS011;27385;51.096;17.190;2023-01-23T02:41:34;94.30;;;32.70;;
41705;SDS011;27385;51.096;17.190;2023-01-23T02:44:08;90.80;;;29.20;;
41705;SDS011;27385;51.096;17.190;2023-01-23T02:46:44;92.40;;;32.40;;
41705;SDS011;27385;51.096;17.190;2023-01-23T02:49:15;89.70;;;29.70;;
41705;SDS011;27385;51.096;17.190;2023-01-23T02:51:47;92.50;;;31.60;;
41705;SDS011;27385;51.096;17.190;2023-01-23T02:54:18;84.60;;;29.80;;
41705;SDS011;27385;51.096;17.190;2023-01-23T02:56:50;87.30;;;31.80;;
41705;SDS011;27385;51.096;17.190;2023-01-23T02:59:21;82.00;;;28.60;;
41705;SDS011;27385;51.096;17.190;2023-01-23T03:02:10;90.70;;;29.80;;
41705;SDS011;27385;51.096;17.190;2023-01-23T03:04:41;84.40;;;28.00;;
41705;SDS011;27385;51.096;17.190;2023-01-23T03:07:12;93.50;;;31.30;;
41705;SDS011;27385;51.096;17.190;2023-01-23T03:09:43;92.40;;;31.50;;
41705;SDS011;27385;51.096;17.190;2023-01-23T03:12:15;73.30;;;24.40;;
41705;SDS011;27385;51.096;17.190;2023-01-23T03:14:46;98.00;;;29.90;;
41705;SDS011;27385;51.096;17.190;2023-01-23T03:17:21;91.60;;;31.10;;
41705;SDS011;27385;51.096;17.190;2023-01-23T03:19:52;86.50;;;30.60;;
41705;SDS011;27385;51.096;17.190;2023-01-23T03:22:24;96.90;;;31.40;;
41705;SDS011;27385;51.096;17.190;2023-01-23T03:24:55;87.90;;;31.10;;
41705;SDS011;27385;51.096;17.190;2023-01-23T03:27:26;84.20;;;28.40;;
41705;SDS011;27385;51.096;17.190;2023-01-23T03:29:59;80.30;;;28.50;;
41705;SDS011;27385;51.096;17.190;2023-01-23T03:32:43;91.00;;;30.60;;
41705;SDS011;27385;51.096;17.190;2023-01-23T03:35:15;92.10;;;31.50;;
41705;SDS011;27385;51.096;17.190;2023-01-23T03:37:47;90.00;;;29.00;;
41705;SDS011;27385;51.096;17.190;2023-01-23T03:40:20;87.00;;;27.40;;
41705;SDS011;27385;51.096;17.190;2023-01-23T03:43:09;94.70;;;30.40;;
41705;SDS011;27385;51.096;17.190;2023-01-23T03:45:40;91.50;;;30.30;;
41705;SDS011;27385;51.096;17.190;2023-01-23T03:48:11;85.00;;;29.20;;
41705;SDS011;27385;51.096;17.190;2023-01-23T03:50:41;92.90;;;31.00;;
41705;SDS011;27385;51.096;17.190;2023-01-23T03:53:13;85.10;;;31.70;;
41705;SDS011;27385;51.096;17.190;2023-01-23T03:55:45;92.80;;;32.20;;
41705;SDS011;27385;51.096;17.190;2023-01-23T03:58:16;95.40;;;32.90;;
41705;SDS011;27385;51.096;17.190;2023-01-23T04:00:47;101.10;;;32.80;;
41705;SDS011;27385;51.096;17.190;2023-01-23T04:03:18;95.50;;;29.40;;
41705;SDS011;27385;51.096;17.190;2023-01-23T04:05:49;100.00;;;32.30;;
41705;SDS011;27385;51.096;17.190;2023-01-23T04:08:25;93.30;;;31.50;;
41705;SDS011;27385;51.096;17.190;2023-01-23T04:11:03;97.00;;;36.50;;
41705;SDS011;27385;51.096;17.190;2023-01-23T04:13:35;102.20;;;33.90;;
41705;SDS011;27385;51.096;17.190;2023-01-23T04:16:07;101.50;;;34.90;;
41705;SDS011;27385;51.096;17.190;2023-01-23T04:18:38;102.80;;;35.30;;
41705;SDS011;27385;51.096;17.190;2023-01-23T04:21:09;99.20;;;33.00;;
41705;SDS011;27385;51.096;17.190;2023-01-23T04:23:40;102.80;;;34.00;;
41705;SDS011;27385;51.096;17.190;2023-01-23T04:26:11;102.80;;;34.20;;
41705;SDS011;27385;51.096;17.190;2023-01-23T04:28:42;87.40;;;30.20;;
41705;SDS011;27385;51.096;17.190;2023-01-23T04:31:13;96.20;;;30.10;;
41705;SDS011;27385;51.096;17.190;2023-01-23T04:33:44;93.30;;;30.90;;
41705;SDS011;27385;51.096;17.190;2023-01-23T04:36:15;93.70;;;29.90;;
41705;SDS011;27385;51.096;17.190;2023-01-23T04:38:45;88.90;;;32.50;;
41705;SDS011;27385;51.096;17.190;2023-01-23T04:41:18;93.70;;;29.50;;
41705;SDS011;27385;51.096;17.190;2023-01-23T04:43:51;98.60;;;30.40;;
41705;SDS011;27385;51.096;17.190;2023-01-23T04:46:22;86.00;;;30.60;;
41705;SDS011;27385;51.096;17.190;2023-01-23T04:48:53;89.40;;;30.80;;
41705;SDS011;27385;51.096;17.190;2023-01-23T04:51:24;87.80;;;29.90;;
41705;SDS011;27385;51.096;17.190;2023-01-23T04:53:55;78.90;;;28.50;;
41705;SDS011;27385;51.096;17.190;2023-01-23T04:56:26;86.60;;;27.20;;
41705;SDS011;27385;51.096;17.190;2023-01-23T04:58:57;86.50;;;28.80;;
41705;SDS011;27385;51.096;17.190;2023-01-23T05:01:28;87.30;;;28.80;;
41705;SDS011;27385;51.096;17.190;2023-01-23T05:03:59;84.70;;;30.10;;
41705;SDS011;27385;51.096;17.190;2023-01-23T05:06:30;84.60;;;28.70;;
41705;SDS011;27385;51.096;17.190;2023-01-23T05:09:01;85.60;;;26.10;;
41705;SDS011;27385;51.096;17.190;2023-01-23T05:11:32;79.70;;;28.90;;
41705;SDS011;27385;51.096;17.190;2023-01-23T05:14:03;91.40;;;29.10;;
41705;SDS011;27385;51.096;17.190;2023-01-23T05:16:34;83.90;;;27.80;;
41705;SDS011;27385;51.096;17.190;2023-01-23T05:19:05;86.70;;;29.10;;
41705;SDS011;27385;51.096;17.190;2023-01-23T05:21:36;87.30;;;31.10;;
41705;SDS011;27385;51.096;17.190;2023-01-23T05:24:08;94.70;;;27.60;;
41705;SDS011;27385;51.096;17.190;2023-01-23T05:26:39;91.20;;;29.60;;
41705;SDS011;27385;51.096;17.190;2023-01-23T05:29:13;82.50;;;27.80;;
41705;SDS011;27385;51.096;17.190;2023-01-23T05:31:44;82.40;;;28.20;;
41705;SDS011;27385;51.096;17.190;2023-01-23T05:34:15;77.10;;;26.90;;
41705;SDS011;27385;51.096;17.190;2023-01-23T05:36:46;89.20;;;30.60;;
41705;SDS011;27385;51.096;17.190;2023-01-23T05:39:17;78.90;;;26.70;;
41705;SDS011;27385;51.096;17.190;2023-01-23T05:41:49;84.50;;;27.50;;
41705;SDS011;27385;51.096;17.190;2023-01-23T05:44:19;89.00;;;29.60;;
41705;SDS011;27385;51.096;17.190;2023-01-23T05:46:51;86.60;;;27.80;;
41705;SDS011;27385;51.096;17.190;2023-01-23T05:49:22;85.90;;;30.40;;
41705;SDS011;27385;51.096;17.190;2023-01-23T05:51:53;91.60;;;30.10;;
41705;SDS011;27385;51.096;17.190;2023-01-23T05:54:24;85.80;;;28.00;;
41705;SDS011;27385;51.096;17.190;2023-01-23T05:56:55;85.30;;;28.40;;
41705;SDS011;27385;51.096;17.190;2023-01-23T05:59:26;81.20;;;27.10;;
41705;SDS011;27385;51.096;17.190;2023-01-23T06:04:26;92.40;;;30.80;;
41705;SDS011;27385;51.096;17.190;2023-01-23T06:06:57;84.10;;;28.50;;
41705;SDS011;27385;51.096;17.190;2023-01-23T06:09:27;76.70;;;26.10;;
41705;SDS011;27385;51.096;17.190;2023-01-23T06:11:58;77.00;;;26.30;;
41705;SDS011;27385;51.096;17.190;2023-01-23T06:14:29;91.00;;;31.50;;
41705;SDS011;27385;51.096;17.190;2023-01-23T06:17:00;89.80;;;29.20;;
41705;SDS011;27385;51.096;17.190;2023-01-23T06:19:31;76.30;;;26.10;;
41705;SDS011;27385;51.096;17.190;2023-01-23T06:22:03;80.90;;;29.10;;
41705;SDS011;27385;51.096;17.190;2023-01-23T06:24:34;81.90;;;28.20;;
41705;SDS011;27385;51.096;17.190;2023-01-23T06:27:05;79.20;;;26.30;;
41705;SDS011;27385;51.096;17.190;2023-01-23T06:29:36;78.40;;;28.70;;
41705;SDS011;27385;51.096;17.190;2023-01-23T06:32:07;86.40;;;29.00;;
41705;SDS011;27385;51.096;17.190;2023-01-23T06:34:38;85.10;;;27.90;;
41705;SDS011;27385;51.096;17.190;2023-01-23T06:37:10;75.40;;;25.80;;
41705;SDS011;27385;51.096;17.190;2023-01-23T06:39:40;76.00;;;26.40;;
41705;SDS011;27385;51.096;17.190;2023-01-23T06:42:11;87.80;;;28.40;;
41705;SDS011;27385;51.096;17.190;2023-01-23T06:47:30;72.50;;;27.70;;
41705;SDS011;27385;51.096;17.190;2023-01-23T06:50:02;84.80;;;29.70;;
41705;SDS011;27385;51.096;17.190;2023-01-23T06:52:34;75.10;;;28.20;;
41705;SDS011;27385;51.096;17.190;2023-01-23T06:55:06;87.90;;;27.80;;
41705;SDS011;27385;51.096;17.190;2023-01-23T06:57:38;79.50;;;27.70;;
41705;SDS011;27385;51.096;17.190;2023-01-23T07:00:10;80.90;;;26.90;;
41705;SDS011;27385;51.096;17.190;2023-01-23T07:02:43;84.40;;;27.90;;
41705;SDS011;27385;51.096;17.190;2023-01-23T07:05:14;79.90;;;29.40;;
41705;SDS011;27385;51.096;17.190;2023-01-23T07:07:45;78.40;;;28.60;;
41705;SDS011;27385;51.096;17.190;2023-01-23T07:10:16;76.60;;;25.70;;
41705;SDS011;27385;51.096;17.190;2023-01-23T07:12:47;84.80;;;29.50;;
41705;SDS011;27385;51.096;17.190;2023-01-23T07:15:18;86.20;;;31.00;;
41705;SDS011;27385;51.096;17.190;2023-01-23T07:17:49;85.30;;;31.30;;
41705;SDS011;27385;51.096;17.190;2023-01-23T07:20:21;83.20;;;29.60;;
41705;SDS011;27385;51.096;17.190;2023-01-23T07:22:54;75.80;;;27.50;;
41705;SDS011;27385;51.096;17.190;2023-01-23T07:25:26;84.50;;;30.70;;
41705;SDS011;27385;51.096;17.190;2023-01-23T07:27:57;84.80;;;30.20;;
41705;SDS011;27385;51.096;17.190;2023-01-23T07:30:28;83.30;;;27.60;;
41705;SDS011;27385;51.096;17.190;2023-01-23T07:32:59;77.20;;;30.30;;
41705;SDS011;27385;51.096;17.190;2023-01-23T07:35:30;81.70;;;29.80;;
41705;SDS011;27385;51.096;17.190;2023-01-23T07:38:01;83.50;;;27.80;;
41705;SDS011;27385;51.096;17.190;2023-01-23T07:43:26;79.20;;;28.50;;
41705;SDS011;27385;51.096;17.190;2023-01-23T07:45:58;77.90;;;28.00;;
41705;SDS011;27385;51.096;17.190;2023-01-23T07:48:30;80.50;;;27.10;;
41705;SDS011;27385;51.096;17.190;2023-01-23T07:51:02;75.90;;;29.80;;
41705;SDS011;27385;51.096;17.190;2023-01-23T07:53:34;81.40;;;28.60;;
41705;SDS011;27385;51.096;17.190;2023-01-23T07:56:06;68.10;;;24.60;;
41705;SDS011;27385;51.096;17.190;2023-01-23T07:58:37;75.60;;;27.80;;
41705;SDS011;27385;51.096;17.190;2023-01-23T08:01:09;69.90;;;24.50;;
41705;SDS011;27385;51.096;17.190;2023-01-23T08:03:40;76.80;;;26.50;;
41705;SDS011;27385;51.096;17.190;2023-01-23T08:06:11;76.40;;;26.80;;
41705;SDS011;27385;51.096;17.190;2023-01-23T08:08:42;73.90;;;25.80;;
41705;SDS011;27385;51.096;17.190;2023-01-23T08:11:15;72.60;;;26.40;;
41705;SDS011;27385;51.096;17.190;2023-01-23T08:13:49;72.80;;;25.00;;
41705;SDS011;27385;51.096;17.190;2023-01-23T08:16:20;71.50;;;25.60;;
41705;SDS011;27385;51.096;17.190;2023-01-23T08:18:51;71.30;;;26.20;;
41705;SDS011;27385;51.096;17.190;2023-01-23T08:21:22;75.30;;;28.70;;
41705;SDS011;27385;51.096;17.190;2023-01-23T08:23:53;75.40;;;27.10;;
41705;SDS011;27385;51.096;17.190;2023-01-23T08:26:25;82.50;;;26.70;;
41705;SDS011;27385;51.096;17.190;2023-01-23T08:28:56;77.50;;;27.10;;
41705;SDS011;27385;51.096;17.190;2023-01-23T08:31:27;68.30;;;23.90;;
41705;SDS011;27385;51.096;17.190;2023-01-23T08:33:59;70.60;;;24.80;;
41705;SDS011;27385;51.096;17.190;2023-01-23T08:36:30;76.90;;;26.10;;
41705;SDS011;27385;51.096;17.190;2023-01-23T08:39:02;68.10;;;25.60;;
41705;SDS011;27385;51.096;17.190;2023-01-23T08:41:33;73.60;;;25.20;;
41705;SDS011;27385;51.096;17.190;2023-01-23T08:44:04;77.20;;;25.30;;
41705;SDS011;27385;51.096;17.190;2023-01-23T08:46:35;73.30;;;27.50;;
41705;SDS011;27385;51.096;17.190;2023-01-23T08:49:06;71.20;;;26.70;;
41705;SDS011;27385;51.096;17.190;2023-01-23T08:51:38;85.30;;;30.90;;
41705;SDS011;27385;51.096;17.190;2023-01-23T08:54:09;81.10;;;32.50;;
41705;SDS011;27385;51.096;17.190;2023-01-23T08:56:41;78.50;;;30.80;;
41705;SDS011;27385;51.096;17.190;2023-01-23T08:59:12;79.70;;;31.80;;
41705;SDS011;27385;51.096;17.190;2023-01-23T09:01:43;70.20;;;28.10;;
41705;SDS011;27385;51.096;17.190;2023-01-23T09:04:15;72.40;;;26.70;;
41705;SDS011;27385;51.096;17.190;2023-01-23T09:06:46;76.10;;;28.40;;
41705;SDS011;27385;51.096;17.190;2023-01-23T09:09:17;86.50;;;30.70;;
41705;SDS011;27385;51.096;17.190;2023-01-23T09:11:48;84.30;;;27.70;;
41705;SDS011;27385;51.096;17.190;2023-01-23T09:14:19;89.10;;;27.70;;
41705;SDS011;27385;51.096;17.190;2023-01-23T09:16:50;74.70;;;24.80;;
41705;SDS011;27385;51.096;17.190;2023-01-23T09:19:21;85.40;;;30.20;;
41705;SDS011;27385;51.096;17.190;2023-01-23T09:21:53;76.20;;;26.70;;
41705;SDS011;27385;51.096;17.190;2023-01-23T09:24:24;92.10;;;28.70;;
41705;SDS011;27385;51.096;17.190;2023-01-23T09:26:55;71.20;;;26.30;;
41705;SDS011;27385;51.096;17.190;2023-01-23T09:29:27;85.60;;;29.70;;
41705;SDS011;27385;51.096;17.190;2023-01-23T09:31:58;80.30;;;26.80;;
41705;SDS011;27385;51.096;17.190;2023-01-23T09:34:30;82.20;;;28.60;;
41705;SDS011;27385;51.096;17.190;2023-01-23T09:37:01;77.30;;;27.30;;
41705;SDS011;27385;51.096;17.190;2023-01-23T09:39:32;81.80;;;30.20;;
41705;SDS011;27385;51.096;17.190;2023-01-23T09:42:03;89.90;;;30.30;;
41705;SDS011;27385;51.096;17.190;2023-01-23T09:44:38;93.90;;;32.70;;
41705;SDS011;27385;51.096;17.190;2023-01-23T09:47:13;97.20;;;34.20;;
41705;SDS011;27385;51.096;17.190;2023-01-23T09:49:52;88.40;;;33.40;;
41705;SDS011;27385;51.096;17.190;2023-01-23T09:52:29;77.70;;;31.30;;
41705;SDS011;27385;51.096;17.190;2023-01-23T09:55:08;78.20;;;29.50;;
41705;SDS011;27385;51.096;17.190;2023-01-23T09:57:45;77.10;;;30.10;;
41705;SDS011;27385;51.096;17.190;2023-01-23T10:00:21;75.70;;;28.00;;
41705;SDS011;27385;51.096;17.190;2023-01-23T10:02:56;70.60;;;25.40;;
41705;SDS011;27385;51.096;17.190;2023-01-23T10:05:29;73.30;;;28.10;;
41705;SDS011;27385;51.096;17.190;2023-01-23T10:08:09;73.40;;;27.50;;
41705;SDS011;27385;51.096;17.190;2023-01-23T10:10:54;70.50;;;26.90;;
41705;SDS011;27385;51.096;17.190;2023-01-23T10:13:34;78.20;;;24.50;;
41705;SDS011;27385;51.096;17.190;2023-01-23T10:16:24;73.60;;;26.80;;
41705;SDS011;27385;51.096;17.190;2023-01-23T10:19:12;74.20;;;27.30;;
41705;SDS011;27385;51.096;17.190;2023-01-23T10:21:53;69.30;;;25.80;;
41705;SDS011;27385;51.096;17.190;2023-01-23T10:24:34;70.60;;;27.00;;
41705;SDS011;27385;51.096;17.190;2023-01-23T10:27:15;70.80;;;26.50;;
41705;SDS011;27385;51.096;17.190;2023-01-23T10:29:49;78.50;;;28.70;;
41705;SDS011;27385;51.096;17.190;2023-01-23T10:32:25;78.90;;;27.90;;
41705;SDS011;27385;51.096;17.190;2023-01-23T10:34:59;72.30;;;27.90;;
41705;SDS011;27385;51.096;17.190;2023-01-23T10:37:42;70.00;;;25.30;;
41705;SDS011;27385;51.096;17.190;2023-01-23T10:40:19;75.40;;;28.80;;
41705;SDS011;27385;51.096;17.190;2023-01-23T10:43:10;86.70;;;28.80;;
41705;SDS011;27385;51.096;17.190;2023-01-23T10:45:43;72.50;;;26.00;;
41705;SDS011;27385;51.096;17.190;2023-01-23T10:48:28;67.50;;;23.80;;
41705;SDS011;27385;51.096;17.190;2023-01-23T10:54:16;67.90;;;25.50;;
41705;SDS011;27385;51.096;17.190;2023-01-23T10:56:52;76.90;;;29.90;;
41705;SDS011;27385;51.096;17.190;2023-01-23T10:59:27;71.20;;;27.30;;
41705;SDS011;27385;51.096;17.190;2023-01-23T11:04:54;75.00;;;26.90;;
41705;SDS011;27385;51.096;17.190;2023-01-23T11:07:26;69.10;;;26.80;;
41705;SDS011;27385;51.096;17.190;2023-01-23T11:10:00;73.70;;;26.00;;
41705;SDS011;27385;51.096;17.190;2023-01-23T11:12:48;71.00;;;25.90;;
41705;SDS011;27385;51.096;17.190;2023-01-23T11:15:21;73.40;;;25.40;;
41705;SDS011;27385;51.096;17.190;2023-01-23T11:17:55;76.60;;;27.80;;
41705;SDS011;27385;51.096;17.190;2023-01-23T11:20:29;71.80;;;28.20;;
41705;SDS011;27385;51.096;17.190;2023-01-23T11:23:05;73.30;;;27.50;;
41705;SDS011;27385;51.096;17.190;2023-01-23T11:25:45;77.10;;;29.80;;
41705;SDS011;27385;51.096;17.190;2023-01-23T11:28:20;74.60;;;27.40;;
41705;SDS011;27385;51.096;17.190;2023-01-23T11:30:58;65.90;;;25.20;;
41705;SDS011;27385;51.096;17.190;2023-01-23T11:33:40;69.40;;;26.40;;
41705;SDS011;27385;51.096;17.190;2023-01-23T11:36:30;72.20;;;27.00;;
41705;SDS011;27385;51.096;17.190;2023-01-23T11:39:11;66.50;;;25.60;;
41705;SDS011;27385;51.096;17.190;2023-01-23T11:41:50;83.10;;;28.10;;
41705;SDS011;27385;51.096;17.190;2023-01-23T11:44:21;71.40;;;26.80;;
41705;SDS011;27385;51.096;17.190;2023-01-23T11:47:04;67.90;;;25.70;;
41705;SDS011;27385;51.096;17.190;2023-01-23T11:50:04;68.60;;;26.80;;
41705;SDS011;27385;51.096;17.190;2023-01-23T11:52:52;75.50;;;28.40;;
41705;SDS011;27385;51.096;17.190;2023-01-23T11:55:34;67.00;;;26.50;;
41705;SDS011;27385;51.096;17.190;2023-01-23T11:58:20;70.90;;;29.10;;
41705;SDS011;27385;51.096;17.190;2023-01-23T12:01:08;80.70;;;27.60;;
41705;SDS011;27385;51.096;17.190;2023-01-23T12:06:50;73.10;;;25.60;;
41705;SDS011;27385;51.096;17.190;2023-01-23T12:09:42;63.90;;;24.10;;
41705;SDS011;27385;51.096;17.190;2023-01-23T12:12:22;70.70;;;25.80;;
41705;SDS011;27385;51.096;17.190;2023-01-23T12:15:08;74.70;;;29.00;;
41705;SDS011;27385;51.096;17.190;2023-01-23T12:17:50;67.70;;;25.90;;
41705;SDS011;27385;51.096;17.190;2023-01-23T12:20:34;75.50;;;27.10;;
41705;SDS011;27385;51.096;17.190;2023-01-23T12:23:31;73.70;;;27.70;;
41705;SDS011;27385;51.096;17.190;2023-01-23T12:26:13;68.80;;;24.20;;
41705;SDS011;27385;51.096;17.190;2023-01-23T12:32:01;69.00;;;24.90;;
41705;SDS011;27385;51.096;17.190;2023-01-23T12:34:46;75.90;;;26.90;;
41705;SDS011;27385;51.096;17.190;2023-01-23T12:37:39;63.40;;;23.90;;
41705;SDS011;27385;51.096;17.190;2023-01-23T12:40:23;74.70;;;27.20;;
41705;SDS011;27385;51.096;17.190;2023-01-23T12:43:01;73.60;;;27.10;;
41705;SDS011;27385;51.096;17.190;2023-01-23T12:45:39;71.00;;;26.90;;
41705;SDS011;27385;51.096;17.190;2023-01-23T12:48:16;69.30;;;27.00;;
41705;SDS011;27385;51.096;17.190;2023-01-23T12:50:56;71.40;;;25.80;;
41705;SDS011;27385;51.096;17.190;2023-01-23T12:53:35;77.30;;;30.20;;
41705;SDS011;27385;51.096;17.190;2023-01-23T12:56:11;71.20;;;27.00;;
41705;SDS011;27385;51.096;17.190;2023-01-23T12:58:46;80.90;;;29.20;;
41705;SDS011;27385;51.096;17.190;2023-01-23T13:01:25;76.00;;;28.50;;
41705;SDS011;27385;51.096;17.190;2023-01-23T13:04:22;82.60;;;29.40;;
41705;SDS011;27385;51.096;17.190;2023-01-23T13:07:09;69.30;;;25.20;;
41705;SDS011;27385;51.096;17.190;2023-01-23T13:09:59;81.70;;;30.80;;
41705;SDS011;27385;51.096;17.190;2023-01-23T13:12:48;78.90;;;30.90;;
41705;SDS011;27385;51.096;17.190;2023-01-23T13:15:33;77.90;;;30.40;;
41705;SDS011;27385;51.096;17.190;2023-01-23T13:18:04;84.60;;;31.30;;
41705;SDS011;27385;51.096;17.190;2023-01-23T13:20:55;83.60;;;31.30;;
41705;SDS011;27385;51.096;17.190;2023-01-23T13:23:45;80.60;;;29.80;;
41705;SDS011;27385;51.096;17.190;2023-01-23T13:26:36;77.20;;;28.70;;
41705;SDS011;27385;51.096;17.190;2023-01-23T13:29:07;82.60;;;30.80;;
41705;SDS011;27385;51.096;17.190;2023-01-23T13:32:20;81.20;;;29.10;;
41705;SDS011;27385;51.096;17.190;2023-01-23T13:34:56;78.30;;;28.40;;
41705;SDS011;27385;51.096;17.190;2023-01-23T13:37:47;82.60;;;29.70;;
41705;SDS011;27385;51.096;17.190;2023-01-23T13:40:22;86.20;;;30.30;;
41705;SDS011;27385;51.096;17.190;2023-01-23T13:42:53;78.50;;;30.60;;
41705;SDS011;27385;51.096;17.190;2023-01-23T13:45:26;77.90;;;28.50;;
41705;SDS011;27385;51.096;17.190;2023-01-23T13:51:29;79.10;;;29.20;;
41705;SDS011;27385;51.096;17.190;2023-01-23T13:54:00;88.60;;;31.70;;
41705;SDS011;27385;51.096;17.190;2023-01-23T13:56:49;74.60;;;27.20;;
41705;SDS011;27385;51.096;17.190;2023-01-23T13:59:30;88.80;;;29.50;;
41705;SDS011;27385;51.096;17.190;2023-01-23T14:02:13;81.20;;;30.10;;
41705;SDS011;27385;51.096;17.190;2023-01-23T14:05:10;84.30;;;28.90;;
41705;SDS011;27385;51.096;17.190;2023-01-23T14:07:45;83.30;;;32.60;;
41705;SDS011;27385;51.096;17.190;2023-01-23T14:10:20;85.80;;;32.20;;
41705;SDS011;27385;51.096;17.190;2023-01-23T14:12:59;84.10;;;33.20;;
41705;SDS011;27385;51.096;17.190;2023-01-23T14:15:33;79.50;;;29.20;;
41705;SDS011;27385;51.096;17.190;2023-01-23T14:18:31;88.40;;;30.10;;
41705;SDS011;27385;51.096;17.190;2023-01-23T14:21:05;77.20;;;29.50;;
41705;SDS011;27385;51.096;17.190;2023-01-23T14:23:49;73.50;;;27.30;;
41705;SDS011;27385;51.096;17.190;2023-01-23T14:26:24;76.70;;;27.20;;
41705;SDS011;27385;51.096;17.190;2023-01-23T14:28:57;78.50;;;28.00;;
41705;SDS011;27385;51.096;17.190;2023-01-23T14:31:30;78.50;;;28.80;;
41705;SDS011;27385;51.096;17.190;2023-01-23T14:34:04;70.20;;;25.00;;
41705;SDS011;27385;51.096;17.190;2023-01-23T14:36:44;78.70;;;30.10;;
41705;SDS011;27385;51.096;17.190;2023-01-23T14:39:18;80.30;;;28.00;;
41705;SDS011;27385;51.096;17.190;2023-01-23T14:41:54;86.10;;;29.90;;
41705;SDS011;27385;51.096;17.190;2023-01-23T14:44:29;74.60;;;26.20;;
41705;SDS011;27385;51.096;17.190;2023-01-23T14:47:09;81.00;;;30.30;;
41705;SDS011;27385;51.096;17.190;2023-01-23T14:49:44;75.50;;;28.40;;
41705;SDS011;27385;51.096;17.190;2023-01-23T14:52:21;83.20;;;33.80;;
41705;SDS011;27385;51.096;17.190;2023-01-23T14:54:58;84.60;;;32.40;;
41705;SDS011;27385;51.096;17.190;2023-01-23T14:57:29;76.50;;;27.30;;
41705;SDS011;27385;51.096;17.190;2023-01-23T15:00:01;79.10;;;31.50;;
41705;SDS011;27385;51.096;17.190;2023-01-23T15:02:34;85.10;;;29.80;;
41705;SDS011;27385;51.096;17.190;2023-01-23T15:05:06;84.80;;;32.10;;
41705;SDS011;27385;51.096;17.190;2023-01-23T15:07:50;82.00;;;31.10;;
41705;SDS011;27385;51.096;17.190;2023-01-23T15:10:23;86.80;;;32.40;;
41705;SDS011;27385;51.096;17.190;2023-01-23T15:12:57;84.80;;;31.30;;
41705;SDS011;27385;51.096;17.190;2023-01-23T15:15:30;82.40;;;34.40;;